createdAt,value
2023-05-12T00:07:13.891Z,45.83
2023-05-12T00:17:19.626Z,46.30
2023-05-12T00:27:25.454Z,46.57
2023-05-12T00:37:31.113Z,47.25
2023-05-12T00:47:37.344Z,47.52
2023-05-12T00:57:43.977Z,47.81
2023-05-12T01:07:51.137Z,48.14
2023-05-12T01:18:03.480Z,48.82
2023-05-12T01:28:10.494Z,49.01
2023-05-12T01:38:16.150Z,49.54
2023-05-12T01:48:21.757Z,50.17
2023-05-12T01:58:27.567Z,50.34
2023-05-12T02:08:33.428Z,50.96
2023-05-12T02:18:39.323Z,51.25
2023-05-12T02:28:45.149Z,51.81
2023-05-12T02:38:50.860Z,52.11
2023-05-12T02:48:56.635Z,52.41
2023-05-12T02:59:02.282Z,52.80
2023-05-12T03:09:08.579Z,52.90
2023-05-12T03:19:15.132Z,53.11
2023-05-12T03:29:20.815Z,53.03
2023-05-12T03:39:26.615Z,52.98
2023-05-12T03:49:32.302Z,53.06
2023-05-12T03:59:37.843Z,52.78
2023-05-12T04:09:44.049Z,52.48
2023-05-12T04:19:49.707Z,49.37
2023-05-12T04:29:55.475Z,40.52
2023-05-12T04:40:01.205Z,38.03
2023-05-12T04:50:08.393Z,40.74
2023-05-12T05:00:16.280Z,35.80
2023-05-12T05:10:22.064Z,30.62
2023-05-12T05:20:29.248Z,26.95
2023-05-12T05:30:35.343Z,24.30
2023-05-12T05:40:52.189Z,22.22
2023-05-12T05:50:59.153Z,20.69
2023-05-12T06:01:05.325Z,20.04
2023-05-12T06:11:11.024Z,18.53
2023-05-12T06:21:16.745Z,18.52
2023-05-12T06:31:22.705Z,18.16
2023-05-12T06:41:28.592Z,18.25
2023-05-12T06:51:34.790Z,17.64
2023-05-12T07:01:41.317Z,16.96
2023-05-12T07:11:47.424Z,16.46
2023-05-12T07:21:53.082Z,16.59
2023-05-12T07:31:59.015Z,16.82
2023-05-12T07:42:04.937Z,16.53
2023-05-12T07:52:10.621Z,16.21
2023-05-12T08:02:17.463Z,16.59
2023-05-12T08:12:23.453Z,19.24
2023-05-12T08:22:29.316Z,23.61
2023-05-12T08:32:35.297Z,26.62
2023-05-12T08:42:45.787Z,27.82
2023-05-12T08:52:52.576Z,28.16
2023-05-12T09:03:00.306Z,28.89
2023-05-12T09:13:06.030Z,29.75
2023-05-12T09:23:19.784Z,30.21
2023-05-12T09:33:25.477Z,30.29
2023-05-12T09:43:31.659Z,30.39
2023-05-12T09:53:44.511Z,30.61
2023-05-12T10:03:52.273Z,31.42
2023-05-12T10:13:58.894Z,32.18
2023-05-12T10:24:05.746Z,32.38
2023-05-12T10:34:19.890Z,32.10
2023-05-12T10:44:30.541Z,32.41
2023-05-12T10:54:44.546Z,32.48
2023-05-12T11:04:53.237Z,32.05
2023-05-12T11:15:00.234Z,32.13
2023-05-12T11:25:14.151Z,32.03
2023-05-12T11:35:21.695Z,32.00
2023-05-12T11:45:29.913Z,30.86
2023-05-12T11:55:35.632Z,30.88
2023-05-12T12:05:42.391Z,30.64
2023-05-12T12:15:48.099Z,29.88
2023-05-12T12:25:54.071Z,29.57
2023-05-12T12:35:59.677Z,29.46
2023-05-12T12:46:06.202Z,29.25
2023-05-12T12:56:12.040Z,29.29
2023-05-12T13:06:18.409Z,29.14
2023-05-12T13:16:24.148Z,29.20
2023-05-12T13:26:30.110Z,28.82
2023-05-12T13:36:35.953Z,29.16
2023-05-12T13:46:41.813Z,28.95
2023-05-12T13:56:47.825Z,28.77
2023-05-12T14:06:53.966Z,28.50
2023-05-12T14:16:59.847Z,28.61
2023-05-12T14:27:06.182Z,28.84
2023-05-12T14:37:12.562Z,29.16
2023-05-12T14:47:18.190Z,29.21
2023-05-12T14:57:23.876Z,28.48
2023-05-12T15:07:29.647Z,28.46
2023-05-12T15:17:35.571Z,28.65
2023-05-12T15:27:42.006Z,28.84
2023-05-12T15:37:47.608Z,28.94
2023-05-12T15:47:53.438Z,29.12
2023-05-12T15:58:00.047Z,28.54
2023-05-12T16:08:05.862Z,28.83
2023-05-12T16:18:11.773Z,29.28
2023-05-12T16:28:17.642Z,29.38
2023-05-12T16:38:23.437Z,29.25
2023-05-12T16:48:34.139Z,29.77
2023-05-12T16:58:40.607Z,29.56
2023-05-12T17:08:46.455Z,28.54
2023-05-12T17:29:01.367Z,29.47
2023-05-12T17:39:07.061Z,29.90
2023-05-12T17:49:12.685Z,30.36
2023-05-12T17:59:18.404Z,30.80
2023-05-12T18:09:24.999Z,31.26
2023-05-12T18:19:30.785Z,31.25
2023-05-12T18:29:36.670Z,31.46
2023-05-12T18:39:42.478Z,31.93
2023-05-12T18:49:48.176Z,32.20
2023-05-12T18:59:54.021Z,32.54
2023-05-12T19:09:59.774Z,32.90
2023-05-12T19:20:07.160Z,33.19
2023-05-12T19:30:15.574Z,33.38
2023-05-12T19:40:21.691Z,33.98
2023-05-12T19:50:27.643Z,34.34
2023-05-12T20:00:33.299Z,35.07
2023-05-12T20:10:39.179Z,35.39
2023-05-12T20:20:44.872Z,35.96
2023-05-12T20:30:50.618Z,36.60
2023-05-12T20:40:56.561Z,36.94
2023-05-12T20:51:10.447Z,37.47
2023-05-12T21:01:16.591Z,37.76
2023-05-12T21:11:23.170Z,38.20
2023-05-12T21:21:28.887Z,38.44
2023-05-12T21:31:34.659Z,38.69
2023-05-12T21:41:40.785Z,39.29
2023-05-12T21:51:46.582Z,39.75
2023-05-12T22:01:52.614Z,39.72
2023-05-12T22:11:58.461Z,40.29
2023-05-12T22:22:04.320Z,40.65
2023-05-12T22:32:10.254Z,41.05
2023-05-12T22:42:15.859Z,41.37
2023-05-12T22:52:21.546Z,41.73
2023-05-12T23:02:27.372Z,42.25
2023-05-12T23:12:33.044Z,42.65
2023-05-12T23:22:38.670Z,42.97
2023-05-12T23:32:44.520Z,43.80
2023-05-12T23:42:50.383Z,43.74
2023-05-12T23:52:56.629Z,44.10
